Osg Courageous — WDF7122 — position and weather

sailwx.info

Track history (hours):
 
Tides and Currents Weather Stations Pressure Air Temp Water Temp Dewpoint Dewpoint Depression Visibility Wind Speed Wind Dir Waves Ship Positions

Osg Courageous

Owner: OSG Ship Management, Inc, Tampa, FL. More information available from US FCC via Universal Licensing System and Coast Guard Vessel Documentation Center.

Last reported at 2016-Aug-21 08:24 UTC. Time now 2016-Aug-26 19:59 UTC.
Position N 38°58' W 074°09'.

Length 187 m; draft 7 m.

Type: Tanker. MMSI: 367481310.

Date/timePositionNaut miles runAvg speedWind from/ knotsBaromVisibWave heightAir tempDewpointWater temp
2016-Aug-21 08:24N 38°58' W 074°09'8 9.2
2016-Aug-21 07:33N 39°05' W 074°06'28 9.2
2016-Aug-21 04:32N 39°32' W 073°57'9 9.4
2016-Aug-21 03:33N 39°41' W 073°54'46 9.1
2016-Aug-20 22:28N 40°27' W 073°51'8 8.4
2016-Aug-20 21:33N 40°31' W 073°60'8 8.0
2016-Aug-20 20:33N 40°39' W 074°03'0 0.1
2016-Aug-20 19:33N 40°39' W 074°03'0 0.0
2016-Aug-20 18:33N 40°39' W 074°03'0 0.0
2016-Aug-20 17:33N 40°39' W 074°03'0 0.2
2016-Aug-20 16:33N 40°39' W 074°03'0 0.0
2016-Aug-20 15:33N 40°39' W 074°03'0 0.0
2016-Aug-20 14:33N 40°39' W 074°03'0 0.0
2016-Aug-20 13:33N 40°39' W 074°03'0 0.0
2016-Aug-20 12:33N 40°39' W 074°03'0 0.0
2016-Aug-20 11:33N 40°39' W 074°03'0 0.2
2016-Aug-20 10:33N 40°39' W 074°03'0 0.2
2016-Aug-20 09:33N 40°39' W 074°03'0 0.0
2016-Aug-20 08:33N 40°39' W 074°03'0 0.0
2016-Aug-20 07:33N 40°39' W 074°03'0 0.0
2016-Aug-20 06:33N 40°39' W 074°03'0 0.0
2016-Aug-20 05:33N 40°39' W 074°03'0 0.0
2016-Aug-20 04:34N 40°39' W 074°03'0 0.2
2016-Aug-20 03:33N 40°39' W 074°03'0 0.0
2016-Aug-20 02:33N 40°39' W 074°03'0 0.0
2016-Aug-20 01:33N 40°39' W 074°03'0 0.0
2016-Aug-20 00:33N 40°39' W 074°03'0 0.0
2016-Aug-19 23:33N 40°39' W 074°03'0 0.0
2016-Aug-19 22:33N 40°39' W 074°03'0 0.2
2016-Aug-19 21:33N 40°39' W 074°03'0 0.1
2016-Aug-19 20:33N 40°39' W 074°03'5 4.7
2016-Aug-19 19:33N 40°39' W 074°09'9 0.2
2016-Aug-17 17:14N 40°30' W 074°08'6 8.9
2016-Aug-17 16:32N 40°29' W 073°59'5 0.1
2016-Aug-15 21:29N 40°25' W 073°55'30 3.0
2016-Aug-15 11:26N 39°56' W 073°44'910.0
2016-Aug-15 10:33N 39°48' W 073°44'1510.1
2016-Aug-15 09:04N 39°33' W 073°47'610.2
2016-Aug-15 08:27N 39°27' W 073°49'1010.2
2016-Aug-15 07:29N 39°17' W 073°52'3110.1
2016-Aug-15 04:28N 38°48' W 074°04'910.1
2016-Aug-15 03:33N 38°39' W 074°07'  
Track history (hours):
 
Tides and Currents Weather Stations Pressure Air Temp Water Temp Dewpoint Dewpoint Depression Visibility Wind Speed Wind Dir Waves Ship Positions

Osg Courageous

Owner: OSG Ship Management, Inc, Tampa, FL. More information available from US FCC via Universal Licensing System and Coast Guard Vessel Documentation Center.

Last reported at 2016-Aug-21 08:24 UTC. Time now 2016-Aug-26 19:59 UTC.
Position N 38°58' W 074°09'.

Length 187 m; draft 7 m.

Type: Tanker. MMSI: 367481310.

Date/timePositionNaut miles runAvg speedWind from/ knotsBaromVisibWave heightAir tempDewpointWater temp
2016-Aug-21 08:24N 38°58' W 074°09'8 9.2
2016-Aug-21 07:33N 39°05' W 074°06'28 9.2
2016-Aug-21 04:32N 39°32' W 073°57'9 9.4
2016-Aug-21 03:33N 39°41' W 073°54'46 9.1
2016-Aug-20 22:28N 40°27' W 073°51'8 8.4
2016-Aug-20 21:33N 40°31' W 073°60'8 8.0
2016-Aug-20 20:33N 40°39' W 074°03'0 0.1
2016-Aug-20 19:33N 40°39' W 074°03'0 0.0
2016-Aug-20 18:33N 40°39' W 074°03'0 0.0
2016-Aug-20 17:33N 40°39' W 074°03'0 0.2
2016-Aug-20 16:33N 40°39' W 074°03'0 0.0
2016-Aug-20 15:33N 40°39' W 074°03'0 0.0
2016-Aug-20 14:33N 40°39' W 074°03'0 0.0
2016-Aug-20 13:33N 40°39' W 074°03'0 0.0
2016-Aug-20 12:33N 40°39' W 074°03'0 0.0
2016-Aug-20 11:33N 40°39' W 074°03'0 0.2
2016-Aug-20 10:33N 40°39' W 074°03'0 0.2
2016-Aug-20 09:33N 40°39' W 074°03'0 0.0
2016-Aug-20 08:33N 40°39' W 074°03'0 0.0
2016-Aug-20 07:33N 40°39' W 074°03'0 0.0
2016-Aug-20 06:33N 40°39' W 074°03'0 0.0
2016-Aug-20 05:33N 40°39' W 074°03'0 0.0
2016-Aug-20 04:34N 40°39' W 074°03'0 0.2
2016-Aug-20 03:33N 40°39' W 074°03'0 0.0
2016-Aug-20 02:33N 40°39' W 074°03'0 0.0
2016-Aug-20 01:33N 40°39' W 074°03'0 0.0
2016-Aug-20 00:33N 40°39' W 074°03'0 0.0
2016-Aug-19 23:33N 40°39' W 074°03'0 0.0
2016-Aug-19 22:33N 40°39' W 074°03'0 0.2
2016-Aug-19 21:33N 40°39' W 074°03'0 0.1
2016-Aug-19 20:33N 40°39' W 074°03'5 4.7
2016-Aug-19 19:33N 40°39' W 074°09'9 0.2
2016-Aug-17 17:14N 40°30' W 074°08'6 8.9
2016-Aug-17 16:32N 40°29' W 073°59'5 0.1
2016-Aug-15 21:29N 40°25' W 073°55'30 3.0
2016-Aug-15 11:26N 39°56' W 073°44'910.0
2016-Aug-15 10:33N 39°48' W 073°44'1510.1
2016-Aug-15 09:04N 39°33' W 073°47'610.2
2016-Aug-15 08:27N 39°27' W 073°49'1010.2
2016-Aug-15 07:29N 39°17' W 073°52'3110.1
2016-Aug-15 04:28N 38°48' W 074°04'910.1
2016-Aug-15 03:33N 38°39' W 074°07'  

Dump ship's entire track history